sensor_id;sensor_type;location;lat;lon;timestamp;temperature;humidity
18189;DHT22;9219;50.396;8.546;2022-07-25T00:02:10;25.90;98.00
18189;DHT22;9219;50.396;8.546;2022-07-25T00:04:39;26.00;98.00
18189;DHT22;9219;50.396;8.546;2022-07-25T00:07:08;25.80;98.20
18189;DHT22;9219;50.396;8.546;2022-07-25T00:09:35;25.80;98.20
18189;DHT22;9219;50.396;8.546;2022-07-25T00:12:04;25.80;98.40
18189;DHT22;9219;50.396;8.546;2022-07-25T00:14:31;25.90;98.60
18189;DHT22;9219;50.396;8.546;2022-07-25T00:17:00;25.90;98.40
18189;DHT22;9219;50.396;8.546;2022-07-25T00:24:47;25.80;98.60
18189;DHT22;9219;50.396;8.546;2022-07-25T00:27:14;25.60;98.90
18189;DHT22;9219;50.396;8.546;2022-07-25T00:29:42;25.60;99.00
18189;DHT22;9219;50.396;8.546;2022-07-25T00:32:09;25.60;99.10
18189;DHT22;9219;50.396;8.546;2022-07-25T00:34:36;25.60;99.10
18189;DHT22;9219;50.396;8.546;2022-07-25T00:37:04;25.70;99.10
18189;DHT22;9219;50.396;8.546;2022-07-25T00:39:32;25.70;99.10
18189;DHT22;9219;50.396;8.546;2022-07-25T00:45:18;25.60;99.20
18189;DHT22;9219;50.396;8.546;2022-07-25T00:47:47;25.70;99.20
18189;DHT22;9219;50.396;8.546;2022-07-25T00:50:15;25.60;99.30
18189;DHT22;9219;50.396;8.546;2022-07-25T00:52:42;25.50;99.50
18189;DHT22;9219;50.396;8.546;2022-07-25T00:55:10;25.50;99.50
18189;DHT22;9219;50.396;8.546;2022-07-25T00:57:38;25.40;99.60
18189;DHT22;9219;50.396;8.546;2022-07-25T01:00:09;25.50;99.60
18189;DHT22;9219;50.396;8.546;2022-07-25T01:02:39;25.60;99.60
18189;DHT22;9219;50.396;8.546;2022-07-25T01:05:46;25.40;99.90
18189;DHT22;9219;50.396;8.546;2022-07-25T01:08:21;25.50;99.70
18189;DHT22;9219;50.396;8.546;2022-07-25T01:10:48;25.50;99.70
18189;DHT22;9219;50.396;8.546;2022-07-25T01:13:17;25.60;99.60
18189;DHT22;9219;50.396;8.546;2022-07-25T01:15:46;25.60;99.60
18189;DHT22;9219;50.396;8.546;2022-07-25T01:18:14;25.70;99.60
18189;DHT22;9219;50.396;8.546;2022-07-25T01:20:43;25.60;99.80
18189;DHT22;9219;50.396;8.546;2022-07-25T01:23:10;25.50;99.90
18189;DHT22;9219;50.396;8.546;2022-07-25T01:30:57;25.50;99.90
18189;DHT22;9219;50.396;8.546;2022-07-25T01:33:25;25.40;99.90
18189;DHT22;9219;50.396;8.546;2022-07-25T01:35:52;25.40;99.90
18189;DHT22;9219;50.396;8.546;2022-07-25T01:38:20;25.40;99.90
18189;DHT22;9219;50.396;8.546;2022-07-25T01:40:47;25.40;99.90
18189;DHT22;9219;50.396;8.546;2022-07-25T01:43:14;25.30;99.90
18189;DHT22;9219;50.396;8.546;2022-07-25T01:45:43;25.20;99.90
18189;DHT22;9219;50.396;8.546;2022-07-25T01:48:11;25.30;99.90
18189;DHT22;9219;50.396;8.546;2022-07-25T01:55:44;25.20;99.90
18189;DHT22;9219;50.396;8.546;2022-07-25T01:58:12;25.20;99.90
18189;DHT22;9219;50.396;8.546;2022-07-25T02:00:41;25.10;99.90
18189;DHT22;9219;50.396;8.546;2022-07-25T02:03:09;25.10;99.90
18189;DHT22;9219;50.396;8.546;2022-07-25T02:05:54;25.00;99.90
18189;DHT22;9219;50.396;8.546;2022-07-25T02:08:21;25.00;99.90
18189;DHT22;9219;50.396;8.546;2022-07-25T02:10:50;25.00;99.90
18189;DHT22;9219;50.396;8.546;2022-07-25T02:13:18;25.10;99.90
18189;DHT22;9219;50.396;8.546;2022-07-25T02:21:07;24.90;99.90
18189;DHT22;9219;50.396;8.546;2022-07-25T02:23:41;24.80;99.90
18189;DHT22;9219;50.396;8.546;2022-07-25T02:26:09;24.90;99.90
18189;DHT22;9219;50.396;8.546;2022-07-25T02:28:37;24.80;99.90
18189;DHT22;9219;50.396;8.546;2022-07-25T02:31:05;24.90;99.90
18189;DHT22;9219;50.396;8.546;2022-07-25T02:33:33;24.80;99.90
18189;DHT22;9219;50.396;8.546;2022-07-25T02:36:00;24.70;99.90
18189;DHT22;9219;50.396;8.546;2022-07-25T02:38:29;24.80;99.90
18189;DHT22;9219;50.396;8.546;2022-07-25T02:46:18;24.80;99.90
18189;DHT22;9219;50.396;8.546;2022-07-25T02:48:46;24.70;99.90
18189;DHT22;9219;50.396;8.546;2022-07-25T02:51:13;24.70;99.90
18189;DHT22;9219;50.396;8.546;2022-07-25T02:53:41;24.70;99.90
18189;DHT22;9219;50.396;8.546;2022-07-25T02:56:25;24.70;99.90
18189;DHT22;9219;50.396;8.546;2022-07-25T02:58:56;24.70;99.90
18189;DHT22;9219;50.396;8.546;2022-07-25T03:01:24;24.70;99.90
18189;DHT22;9219;50.396;8.546;2022-07-25T03:03:52;24.70;99.90
18189;DHT22;9219;50.396;8.546;2022-07-25T03:06:34;24.80;99.90
18189;DHT22;9219;50.396;8.546;2022-07-25T03:09:02;24.70;99.90
18189;DHT22;9219;50.396;8.546;2022-07-25T03:11:30;24.70;99.90
18189;DHT22;9219;50.396;8.546;2022-07-25T03:13:59;24.70;99.90
18189;DHT22;9219;50.396;8.546;2022-07-25T03:16:27;24.60;99.90
18189;DHT22;9219;50.396;8.546;2022-07-25T03:18:54;24.60;99.90
18189;DHT22;9219;50.396;8.546;2022-07-25T03:21:22;24.70;99.90
18189;DHT22;9219;50.396;8.546;2022-07-25T03:26:34;24.60;99.90
18189;DHT22;9219;50.396;8.546;2022-07-25T03:29:02;24.60;99.90
18189;DHT22;9219;50.396;8.546;2022-07-25T03:31:29;24.60;99.90
18189;DHT22;9219;50.396;8.546;2022-07-25T03:33:57;24.70;99.90
18189;DHT22;9219;50.396;8.546;2022-07-25T03:36:24;24.70;99.90
18189;DHT22;9219;50.396;8.546;2022-07-25T03:38:52;24.70;99.90
18189;DHT22;9219;50.396;8.546;2022-07-25T03:41:21;24.70;99.90
18189;DHT22;9219;50.396;8.546;2022-07-25T03:51:39;24.60;99.90
18189;DHT22;9219;50.396;8.546;2022-07-25T03:54:06;24.60;99.90
18189;DHT22;9219;50.396;8.546;2022-07-25T03:56:40;24.60;99.90
18189;DHT22;9219;50.396;8.546;2022-07-25T03:59:11;24.60;99.90
18189;DHT22;9219;50.396;8.546;2022-07-25T04:01:39;24.70;99.90
18189;DHT22;9219;50.396;8.546;2022-07-25T04:04:07;24.60;99.90
18189;DHT22;9219;50.396;8.546;2022-07-25T04:06:36;24.70;99.90
18189;DHT22;9219;50.396;8.546;2022-07-25T04:12:27;24.70;99.90
18189;DHT22;9219;50.396;8.546;2022-07-25T04:14:54;24.70;99.90
18189;DHT22;9219;50.396;8.546;2022-07-25T04:17:21;24.70;99.90
18189;DHT22;9219;50.396;8.546;2022-07-25T04:19:51;24.60;99.90
18189;DHT22;9219;50.396;8.546;2022-07-25T04:22:19;24.50;99.90
18189;DHT22;9219;50.396;8.546;2022-07-25T04:24:48;24.60;99.90
18189;DHT22;9219;50.396;8.546;2022-07-25T04:27:16;24.60;99.90
18189;DHT22;9219;50.396;8.546;2022-07-25T04:33:10;24.70;99.90
18189;DHT22;9219;50.396;8.546;2022-07-25T04:35:40;24.60;99.90
18189;DHT22;9219;50.396;8.546;2022-07-25T04:38:08;24.60;99.90
18189;DHT22;9219;50.396;8.546;2022-07-25T04:40:38;24.60;99.90
18189;DHT22;9219;50.396;8.546;2022-07-25T04:43:06;24.60;99.90
18189;DHT22;9219;50.396;8.546;2022-07-25T04:45:35;24.70;99.90
18189;DHT22;9219;50.396;8.546;2022-07-25T04:48:03;24.70;99.90
18189;DHT22;9219;50.396;8.546;2022-07-25T04:50:31;24.70;99.90
18189;DHT22;9219;50.396;8.546;2022-07-25T04:55:40;24.70;99.90
18189;DHT22;9219;50.396;8.546;2022-07-25T04:58:07;24.60;99.90
18189;DHT22;9219;50.396;8.546;2022-07-25T05:00:35;24.50;99.90
18189;DHT22;9219;50.396;8.546;2022-07-25T05:03:03;24.60;99.90
18189;DHT22;9219;50.396;8.546;2022-07-25T05:05:31;24.60;99.90
18189;DHT22;9219;50.396;8.546;2022-07-25T05:07:59;24.60;99.90
18189;DHT22;9219;50.396;8.546;2022-07-25T05:10:28;24.60;99.90
18189;DHT22;9219;50.396;8.546;2022-07-25T05:12:57;24.60;99.90
18189;DHT22;9219;50.396;8.546;2022-07-25T05:18:07;24.60;99.90
18189;DHT22;9219;50.396;8.546;2022-07-25T05:20:34;24.50;99.90
18189;DHT22;9219;50.396;8.546;2022-07-25T05:23:02;24.50;99.90
18189;DHT22;9219;50.396;8.546;2022-07-25T05:25:30;24.50;99.90
18189;DHT22;9219;50.396;8.546;2022-07-25T05:27:57;24.60;99.90
18189;DHT22;9219;50.396;8.546;2022-07-25T05:30:26;24.60;99.90
18189;DHT22;9219;50.396;8.546;2022-07-25T05:32:54;24.50;99.90
18189;DHT22;9219;50.396;8.546;2022-07-25T05:35:27;24.50;99.90
18189;DHT22;9219;50.396;8.546;2022-07-25T05:42:46;24.50;99.90
18189;DHT22;9219;50.396;8.546;2022-07-25T05:45:18;24.60;99.90
18189;DHT22;9219;50.396;8.546;2022-07-25T05:47:51;24.60;99.90
18189;DHT22;9219;50.396;8.546;2022-07-25T05:50:25;24.50;99.90
18189;DHT22;9219;50.396;8.546;2022-07-25T05:53:34;24.50;99.90
18189;DHT22;9219;50.396;8.546;2022-07-25T06:01:10;24.50;99.90
18189;DHT22;9219;50.396;8.546;2022-07-25T06:03:45;24.70;99.90
18189;DHT22;9219;50.396;8.546;2022-07-25T06:12:44;24.70;99.90
18189;DHT22;9219;50.396;8.546;2022-07-25T06:15:13;24.90;99.90
18189;DHT22;9219;50.396;8.546;2022-07-25T06:17:52;25.00;99.90
18189;DHT22;9219;50.396;8.546;2022-07-25T06:20:20;25.00;99.90
18189;DHT22;9219;50.396;8.546;2022-07-25T06:22:47;25.00;99.90
18189;DHT22;9219;50.396;8.546;2022-07-25T06:25:17;25.20;99.90
18189;DHT22;9219;50.396;8.546;2022-07-25T06:27:47;25.30;99.90
18189;DHT22;9219;50.396;8.546;2022-07-25T06:35:04;25.20;99.90
18189;DHT22;9219;50.396;8.546;2022-07-25T06:37:35;25.40;99.90
18189;DHT22;9219;50.396;8.546;2022-07-25T06:40:08;25.50;99.90
18189;DHT22;9219;50.396;8.546;2022-07-25T06:42:37;25.60;99.90
18189;DHT22;9219;50.396;8.546;2022-07-25T06:45:08;25.60;99.90
18189;DHT22;9219;50.396;8.546;2022-07-25T06:47:37;25.80;99.90
18189;DHT22;9219;50.396;8.546;2022-07-25T06:50:21;26.00;99.90
18189;DHT22;9219;50.396;8.546;2022-07-25T06:52:59;26.00;99.90
18189;DHT22;9219;50.396;8.546;2022-07-25T06:55:27;26.10;99.90
18189;DHT22;9219;50.396;8.546;2022-07-25T07:03:04;26.30;99.90
18189;DHT22;9219;50.396;8.546;2022-07-25T07:06:03;26.50;99.90
18189;DHT22;9219;50.396;8.546;2022-07-25T07:08:55;26.70;99.90
18189;DHT22;9219;50.396;8.546;2022-07-25T07:11:37;26.80;99.90
18189;DHT22;9219;50.396;8.546;2022-07-25T07:14:22;27.00;99.90
18189;DHT22;9219;50.396;8.546;2022-07-25T07:17:11;27.00;99.90
18189;DHT22;9219;50.396;8.546;2022-07-25T07:23:35;27.00;99.90
18189;DHT22;9219;50.396;8.546;2022-07-25T07:26:40;27.10;99.90
18189;DHT22;9219;50.396;8.546;2022-07-25T07:37:11;27.30;99.90
18189;DHT22;9219;50.396;8.546;2022-07-25T07:39:40;27.40;99.90
18189;DHT22;9219;50.396;8.546;2022-07-25T07:42:08;27.50;99.90
18189;DHT22;9219;50.396;8.546;2022-07-25T07:44:35;27.60;99.90
18189;DHT22;9219;50.396;8.546;2022-07-25T07:47:30;27.60;99.90
18189;DHT22;9219;50.396;8.546;2022-07-25T07:49:57;27.80;99.90
18189;DHT22;9219;50.396;8.546;2022-07-25T07:52:36;27.90;99.90
18189;DHT22;9219;50.396;8.546;2022-07-25T07:55:24;28.10;99.90
18189;DHT22;9219;50.396;8.546;2022-07-25T07:58:19;28.30;99.90
18189;DHT22;9219;50.396;8.546;2022-07-25T08:08:59;28.90;99.90
18189;DHT22;9219;50.396;8.546;2022-07-25T08:11:27;29.30;99.90
18189;DHT22;9219;50.396;8.546;2022-07-25T08:14:21;29.50;99.90
18189;DHT22;9219;50.396;8.546;2022-07-25T08:17:23;29.80;99.90
18189;DHT22;9219;50.396;8.546;2022-07-25T08:19:54;30.10;99.90
18189;DHT22;9219;50.396;8.546;2022-07-25T08:23:15;30.40;99.90
18189;DHT22;9219;50.396;8.546;2022-07-25T08:26:29;30.70;99.90
18189;DHT22;9219;50.396;8.546;2022-07-25T08:29:19;30.90;99.90
18189;DHT22;9219;50.396;8.546;2022-07-25T08:31:53;31.10;99.90
18189;DHT22;9219;50.396;8.546;2022-07-25T08:34:30;31.40;99.90
18189;DHT22;9219;50.396;8.546;2022-07-25T08:42:04;32.00;99.90
18189;DHT22;9219;50.396;8.546;2022-07-25T08:44:43;32.40;99.90
18189;DHT22;9219;50.396;8.546;2022-07-25T08:47:11;32.50;99.90
18189;DHT22;9219;50.396;8.546;2022-07-25T08:49:48;32.60;99.90
18189;DHT22;9219;50.396;8.546;2022-07-25T08:52:19;32.80;99.90
18189;DHT22;9219;50.396;8.546;2022-07-25T08:54:51;33.10;99.90
18189;DHT22;9219;50.396;8.546;2022-07-25T08:57:23;33.30;99.40
18189;DHT22;9219;50.396;8.546;2022-07-25T08:59:50;33.10;99.20
18189;DHT22;9219;50.396;8.546;2022-07-25T09:07:01;33.50;96.60
18189;DHT22;9219;50.396;8.546;2022-07-25T09:09:36;33.80;97.90
18189;DHT22;9219;50.396;8.546;2022-07-25T09:12:07;34.10;96.90
18189;DHT22;9219;50.396;8.546;2022-07-25T09:14:42;34.20;95.90
18189;DHT22;9219;50.396;8.546;2022-07-25T09:17:11;34.30;95.50
18189;DHT22;9219;50.396;8.546;2022-07-25T09:19:53;34.30;94.30
18189;DHT22;9219;50.396;8.546;2022-07-25T09:22:23;34.50;94.00
18189;DHT22;9219;50.396;8.546;2022-07-25T09:30:00;34.90;94.20
18189;DHT22;9219;50.396;8.546;2022-07-25T09:32:37;35.50;92.80
18189;DHT22;9219;50.396;8.546;2022-07-25T09:35:05;35.30;92.80
18189;DHT22;9219;50.396;8.546;2022-07-25T09:37:33;35.30;92.40
18189;DHT22;9219;50.396;8.546;2022-07-25T09:40:00;35.50;92.10
18189;DHT22;9219;50.396;8.546;2022-07-25T09:42:39;35.20;92.10
18189;DHT22;9219;50.396;8.546;2022-07-25T09:45:13;35.30;93.00
18189;DHT22;9219;50.396;8.546;2022-07-25T09:47:52;35.60;92.40
18189;DHT22;9219;50.396;8.546;2022-07-25T09:54:25;35.60;91.60
18189;DHT22;9219;50.396;8.546;2022-07-25T09:56:53;35.60;91.50
18189;DHT22;9219;50.396;8.546;2022-07-25T09:59:21;35.60;92.00
18189;DHT22;9219;50.396;8.546;2022-07-25T10:01:55;35.70;91.80
18189;DHT22;9219;50.396;8.546;2022-07-25T10:04:36;35.90;92.10
18189;DHT22;9219;50.396;8.546;2022-07-25T10:07:10;35.80;91.30
18189;DHT22;9219;50.396;8.546;2022-07-25T10:09:56;35.70;90.80
18189;DHT22;9219;50.396;8.546;2022-07-25T10:17:31;35.60;91.30
18189;DHT22;9219;50.396;8.546;2022-07-25T10:19:59;35.80;91.20
18189;DHT22;9219;50.396;8.546;2022-07-25T10:22:37;35.80;91.60
18189;DHT22;9219;50.396;8.546;2022-07-25T10:25:22;35.90;91.30
18189;DHT22;9219;50.396;8.546;2022-07-25T10:27:51;35.70;91.00
18189;DHT22;9219;50.396;8.546;2022-07-25T10:30:27;35.70;90.70
18189;DHT22;9219;50.396;8.546;2022-07-25T10:32:57;35.90;90.70
18189;DHT22;9219;50.396;8.546;2022-07-25T10:40:35;35.60;90.60
18189;DHT22;9219;50.396;8.546;2022-07-25T10:43:08;35.60;90.50
18189;DHT22;9219;50.396;8.546;2022-07-25T10:45:40;35.70;90.40
18189;DHT22;9219;50.396;8.546;2022-07-25T10:48:20;35.80;90.40
18189;DHT22;9219;50.396;8.546;2022-07-25T10:50:50;35.80;89.80
18189;DHT22;9219;50.396;8.546;2022-07-25T10:53:33;35.80;90.00
18189;DHT22;9219;50.396;8.546;2022-07-25T11:02:57;36.40;88.80
18189;DHT22;9219;50.396;8.546;2022-07-25T11:05:24;36.70;87.80
18189;DHT22;9219;50.396;8.546;2022-07-25T11:07:53;36.80;88.10
18189;DHT22;9219;50.396;8.546;2022-07-25T11:10:49;37.00;88.20
18189;DHT22;9219;50.396;8.546;2022-07-25T11:13:29;37.20;87.20
18189;DHT22;9219;50.396;8.546;2022-07-25T11:15:57;37.20;88.10
18189;DHT22;9219;50.396;8.546;2022-07-25T11:18:33;37.40;88.20
18189;DHT22;9219;50.396;8.546;2022-07-25T11:25:44;37.20;88.30
18189;DHT22;9219;50.396;8.546;2022-07-25T11:28:12;36.80;88.80
18189;DHT22;9219;50.396;8.546;2022-07-25T11:30:43;36.50;87.80
18189;DHT22;9219;50.396;8.546;2022-07-25T11:33:15;35.80;89.20
18189;DHT22;9219;50.396;8.546;2022-07-25T11:35:45;35.70;90.40
18189;DHT22;9219;50.396;8.546;2022-07-25T11:38:16;36.00;89.90
18189;DHT22;9219;50.396;8.546;2022-07-25T11:41:03;35.90;89.30
18189;DHT22;9219;50.396;8.546;2022-07-25T11:46:10;36.10;90.40
18189;DHT22;9219;50.396;8.546;2022-07-25T11:48:39;36.10;90.20
18189;DHT22;9219;50.396;8.546;2022-07-25T11:52:00;36.00;90.40
18189;DHT22;9219;50.396;8.546;2022-07-25T11:55:06;36.20;90.00
18189;DHT22;9219;50.396;8.546;2022-07-25T11:57:57;36.50;90.10
18189;DHT22;9219;50.396;8.546;2022-07-25T12:00:24;35.60;90.10
18189;DHT22;9219;50.396;8.546;2022-07-25T12:02:53;33.80;91.30
18189;DHT22;9219;50.396;8.546;2022-07-25T12:05:31;33.70;91.90
18189;DHT22;9219;50.396;8.546;2022-07-25T12:12:23;33.30;92.00
18189;DHT22;9219;50.396;8.546;2022-07-25T12:15:45;31.20;95.00
18189;DHT22;9219;50.396;8.546;2022-07-25T12:18:34;30.80;95.80
18189;DHT22;9219;50.396;8.546;2022-07-25T12:21:09;30.80;95.30
18189;DHT22;9219;50.396;8.546;2022-07-25T12:23:53;30.90;95.20
18189;DHT22;9219;50.396;8.546;2022-07-25T12:26:33;31.10;94.60
18189;DHT22;9219;50.396;8.546;2022-07-25T12:29:34;31.60;94.90
18189;DHT22;9219;50.396;8.546;2022-07-25T12:32:36;32.10;94.20
18189;DHT22;9219;50.396;8.546;2022-07-25T12:35:13;32.30;93.80
18189;DHT22;9219;50.396;8.546;2022-07-25T12:53:40;32.20;94.00
18189;DHT22;9219;50.396;8.546;2022-07-25T12:59:24;29.70;97.50
18189;DHT22;9219;50.396;8.546;2022-07-25T13:01:54;29.80;98.60
18189;DHT22;9219;50.396;8.546;2022-07-25T13:04:27;29.30;99.90
18189;DHT22;9219;50.396;8.546;2022-07-25T13:06:55;29.10;99.90
18189;DHT22;9219;50.396;8.546;2022-07-25T13:09:24;28.90;99.90
18189;DHT22;9219;50.396;8.546;2022-07-25T13:12:06;28.90;99.90
18189;DHT22;9219;50.396;8.546;2022-07-25T13:19:43;28.70;99.90
18189;DHT22;9219;50.396;8.546;2022-07-25T13:22:11;28.50;99.90
18189;DHT22;9219;50.396;8.546;2022-07-25T13:24:38;28.60;99.90
18189;DHT22;9219;50.396;8.546;2022-07-25T13:27:24;28.80;99.90
18189;DHT22;9219;50.396;8.546;2022-07-25T13:30:00;29.00;99.90
18189;DHT22;9219;50.396;8.546;2022-07-25T13:32:27;29.40;99.90
18189;DHT22;9219;50.396;8.546;2022-07-25T13:34:58;29.70;99.90
18189;DHT22;9219;50.396;8.546;2022-07-25T13:37:27;29.70;99.90
18189;DHT22;9219;50.396;8.546;2022-07-25T13:45:45;29.80;99.90
18189;DHT22;9219;50.396;8.546;2022-07-25T13:48:16;30.20;99.90
18189;DHT22;9219;50.396;8.546;2022-07-25T13:51:24;30.40;99.90
18189;DHT22;9219;50.396;8.546;2022-07-25T13:54:13;30.50;99.90
18189;DHT22;9219;50.396;8.546;2022-07-25T13:56:56;30.60;99.90
18189;DHT22;9219;50.396;8.546;2022-07-25T14:00:04;30.40;99.90
18189;DHT22;9219;50.396;8.546;2022-07-25T14:02:45;30.50;99.90
18189;DHT22;9219;50.396;8.546;2022-07-25T14:25:00;30.50;99.90
18189;DHT22;9219;50.396;8.546;2022-07-25T14:27:33;30.60;99.80
18189;DHT22;9219;50.396;8.546;2022-07-25T14:33:15;31.00;99.90
18189;DHT22;9219;50.396;8.546;2022-07-25T14:36:17;31.30;99.00
18189;DHT22;9219;50.396;8.546;2022-07-25T14:39:06;31.30;99.30
18189;DHT22;9219;50.396;8.546;2022-07-25T14:46:52;31.80;99.10
18189;DHT22;9219;50.396;8.546;2022-07-25T14:49:05;31.80;98.70
18189;DHT22;9219;50.396;8.546;2022-07-25T14:52:42;32.00;98.30
18189;DHT22;9219;50.396;8.546;2022-07-25T15:09:43;31.90;98.40
18189;DHT22;9219;50.396;8.546;2022-07-25T15:12:14;32.30;97.30
18189;DHT22;9219;50.396;8.546;2022-07-25T15:14:43;32.30;97.10
18189;DHT22;9219;50.396;8.546;2022-07-25T15:17:13;32.50;96.70
18189;DHT22;9219;50.396;8.546;2022-07-25T15:19:54;32.50;96.90
18189;DHT22;9219;50.396;8.546;2022-07-25T15:22:24;32.20;96.50
18189;DHT22;9219;50.396;8.546;2022-07-25T15:24:55;32.20;95.80
18189;DHT22;9219;50.396;8.546;2022-07-25T15:32:45;31.80;96.80
18189;DHT22;9219;50.396;8.546;2022-07-25T15:35:21;31.80;96.10
18189;DHT22;9219;50.396;8.546;2022-07-25T15:37:54;31.30;96.70
18189;DHT22;9219;50.396;8.546;2022-07-25T15:40:33;31.30;96.70
18189;DHT22;9219;50.396;8.546;2022-07-25T15:43:04;31.10;97.30
18189;DHT22;9219;50.396;8.546;2022-07-25T15:45:42;30.80;97.70
18189;DHT22;9219;50.396;8.546;2022-07-25T15:48:20;30.30;98.50
18189;DHT22;9219;50.396;8.546;2022-07-25T15:50:51;29.70;99.60
18189;DHT22;9219;50.396;8.546;2022-07-25T15:53:30;29.60;99.90
18189;DHT22;9219;50.396;8.546;2022-07-25T15:56:03;29.50;99.90
18189;DHT22;9219;50.396;8.546;2022-07-25T16:04:07;29.70;99.90
18189;DHT22;9219;50.396;8.546;2022-07-25T16:06:41;29.90;99.90
18189;DHT22;9219;50.396;8.546;2022-07-25T16:09:11;29.70;99.90
18189;DHT22;9219;50.396;8.546;2022-07-25T16:11:41;29.40;99.90
18189;DHT22;9219;50.396;8.546;2022-07-25T16:14:12;29.00;99.90
18189;DHT22;9219;50.396;8.546;2022-07-25T16:16:40;28.90;99.90
18189;DHT22;9219;50.396;8.546;2022-07-25T16:19:12;28.70;99.90
18189;DHT22;9219;50.396;8.546;2022-07-25T16:22:07;28.50;99.90
18189;DHT22;9219;50.396;8.546;2022-07-25T16:24:44;28.20;99.90
18189;DHT22;9219;50.396;8.546;2022-07-25T16:27:38;27.90;99.90
18189;DHT22;9219;50.396;8.546;2022-07-25T16:30:19;27.50;99.90
18189;DHT22;9219;50.396;8.546;2022-07-25T16:33:03;27.20;99.90
18189;DHT22;9219;50.396;8.546;2022-07-25T16:35:54;27.00;99.90
18189;DHT22;9219;50.396;8.546;2022-07-25T16:38:27;26.80;99.90
18189;DHT22;9219;50.396;8.546;2022-07-25T16:41:05;26.60;99.90
18189;DHT22;9219;50.396;8.546;2022-07-25T16:46:48;26.20;99.90
18189;DHT22;9219;50.396;8.546;2022-07-25T16:49:30;26.10;99.90
18189;DHT22;9219;50.396;8.546;2022-07-25T16:52:03;26.10;99.90
18189;DHT22;9219;50.396;8.546;2022-07-25T16:54:32;26.30;99.90
18189;DHT22;9219;50.396;8.546;2022-07-25T16:57:02;26.20;99.90
18189;DHT22;9219;50.396;8.546;2022-07-25T16:59:29;26.20;99.90
18189;DHT22;9219;50.396;8.546;2022-07-25T17:02:01;26.10;99.90
18189;DHT22;9219;50.396;8.546;2022-07-25T17:07:12;25.80;99.90
18189;DHT22;9219;50.396;8.546;2022-07-25T17:09:42;25.80;99.90
18189;DHT22;9219;50.396;8.546;2022-07-25T17:12:10;25.70;99.90
18189;DHT22;9219;50.396;8.546;2022-07-25T17:14:46;25.80;99.90
18189;DHT22;9219;50.396;8.546;2022-07-25T17:17:16;25.50;99.90
18189;DHT22;9219;50.396;8.546;2022-07-25T17:19:47;25.40;99.90
18189;DHT22;9219;50.396;8.546;2022-07-25T17:22:15;25.20;99.90
18189;DHT22;9219;50.396;8.546;2022-07-25T17:24:43;25.00;99.90
18189;DHT22;9219;50.396;8.546;2022-07-25T17:32:19;24.70;99.90
18189;DHT22;9219;50.396;8.546;2022-07-25T17:34:56;24.40;99.90
18189;DHT22;9219;50.396;8.546;2022-07-25T17:37:25;24.30;99.90
18189;DHT22;9219;50.396;8.546;2022-07-25T17:39:54;24.30;99.90
18189;DHT22;9219;50.396;8.546;2022-07-25T17:42:25;24.20;99.90
18189;DHT22;9219;50.396;8.546;2022-07-25T17:44:55;24.30;99.90
18189;DHT22;9219;50.396;8.546;2022-07-25T17:47:23;24.10;99.90
18189;DHT22;9219;50.396;8.546;2022-07-25T17:52:38;24.10;99.90
18189;DHT22;9219;50.396;8.546;2022-07-25T17:55:11;24.00;99.90
18189;DHT22;9219;50.396;8.546;2022-07-25T17:57:41;23.90;99.90
18189;DHT22;9219;50.396;8.546;2022-07-25T18:00:12;23.90;99.90
18189;DHT22;9219;50.396;8.546;2022-07-25T18:03:00;23.80;99.90
18189;DHT22;9219;50.396;8.546;2022-07-25T18:05:29;23.80;99.90
18189;DHT22;9219;50.396;8.546;2022-07-25T18:08:00;23.80;99.90
18189;DHT22;9219;50.396;8.546;2022-07-25T18:16:00;23.50;99.90
18189;DHT22;9219;50.396;8.546;2022-07-25T18:18:33;23.40;99.90
18189;DHT22;9219;50.396;8.546;2022-07-25T18:21:07;23.30;99.90
18189;DHT22;9219;50.396;8.546;2022-07-25T18:23:34;23.20;99.90
18189;DHT22;9219;50.396;8.546;2022-07-25T18:26:08;23.10;99.90
18189;DHT22;9219;50.396;8.546;2022-07-25T18:28:36;23.00;99.90
18189;DHT22;9219;50.396;8.546;2022-07-25T18:31:13;22.90;99.90
18189;DHT22;9219;50.396;8.546;2022-07-25T18:33:55;22.80;99.90
18189;DHT22;9219;50.396;8.546;2022-07-25T18:36:49;22.80;99.90
18189;DHT22;9219;50.396;8.546;2022-07-25T18:39:19;22.70;99.90
18189;DHT22;9219;50.396;8.546;2022-07-25T18:42:14;22.70;99.90
18189;DHT22;9219;50.396;8.546;2022-07-25T18:44:45;22.60;99.90
18189;DHT22;9219;50.396;8.546;2022-07-25T18:47:19;22.50;99.90
18189;DHT22;9219;50.396;8.546;2022-07-25T18:49:53;22.40;99.90
18189;DHT22;9219;50.396;8.546;2022-07-25T18:52:28;22.20;99.90
18189;DHT22;9219;50.396;8.546;2022-07-25T18:55:20;22.10;99.90
18189;DHT22;9219;50.396;8.546;2022-07-25T19:03:25;21.90;99.90
18189;DHT22;9219;50.396;8.546;2022-07-25T19:05:54;21.90;99.90
18189;DHT22;9219;50.396;8.546;2022-07-25T19:08:30;21.90;99.90
18189;DHT22;9219;50.396;8.546;2022-07-25T19:10:58;21.90;99.90
18189;DHT22;9219;50.396;8.546;2022-07-25T19:13:26;21.80;99.90
18189;DHT22;9219;50.396;8.546;2022-07-25T19:16:14;21.80;99.90
18189;DHT22;9219;50.396;8.546;2022-07-25T19:18:44;21.80;99.90
18189;DHT22;9219;50.396;8.546;2022-07-25T19:21:12;21.80;99.90
18189;DHT22;9219;50.396;8.546;2022-07-25T19:23:57;21.80;99.90
18189;DHT22;9219;50.396;8.546;2022-07-25T19:26:29;21.80;99.90
18189;DHT22;9219;50.396;8.546;2022-07-25T19:28:58;21.80;99.90
18189;DHT22;9219;50.396;8.546;2022-07-25T19:31:27;21.80;99.90
18189;DHT22;9219;50.396;8.546;2022-07-25T19:33:55;21.60;99.90
18189;DHT22;9219;50.396;8.546;2022-07-25T19:36:23;21.70;99.90
18189;DHT22;9219;50.396;8.546;2022-07-25T19:38:52;21.70;99.90
18189;DHT22;9219;50.396;8.546;2022-07-25T19:44:02;21.60;99.90
18189;DHT22;9219;50.396;8.546;2022-07-25T19:46:31;21.40;99.90
18189;DHT22;9219;50.396;8.546;2022-07-25T19:49:00;21.50;99.90
18189;DHT22;9219;50.396;8.546;2022-07-25T19:51:29;21.30;99.90
18189;DHT22;9219;50.396;8.546;2022-07-25T19:54:00;21.40;99.90
18189;DHT22;9219;50.396;8.546;2022-07-25T19:56:30;21.30;99.90
18189;DHT22;9219;50.396;8.546;2022-07-25T19:59:02;21.40;99.90
18189;DHT22;9219;50.396;8.546;2022-07-25T20:01:31;21.30;99.90
18189;DHT22;9219;50.396;8.546;2022-07-25T20:09:09;21.20;99.90
18189;DHT22;9219;50.396;8.546;2022-07-25T20:11:38;21.40;99.90
18189;DHT22;9219;50.396;8.546;2022-07-25T20:14:09;21.40;99.90
18189;DHT22;9219;50.396;8.546;2022-07-25T20:16:38;21.30;99.90
18189;DHT22;9219;50.396;8.546;2022-07-25T20:19:08;21.30;99.90
18189;DHT22;9219;50.396;8.546;2022-07-25T20:21:40;21.30;99.90
18189;DHT22;9219;50.396;8.546;2022-07-25T20:24:08;21.10;99.90
18189;DHT22;9219;50.396;8.546;2022-07-25T20:26:38;21.10;99.90
18189;DHT22;9219;50.396;8.546;2022-07-25T20:34:11;21.20;99.90
18189;DHT22;9219;50.396;8.546;2022-07-25T20:36:38;21.00;99.90
18189;DHT22;9219;50.396;8.546;2022-07-25T20:39:08;21.00;99.90
18189;DHT22;9219;50.396;8.546;2022-07-25T20:41:37;20.90;99.90
18189;DHT22;9219;50.396;8.546;2022-07-25T20:44:05;21.10;99.90
18189;DHT22;9219;50.396;8.546;2022-07-25T20:46:33;21.10;99.90
18189;DHT22;9219;50.396;8.546;2022-07-25T20:49:02;21.10;99.90
18189;DHT22;9219;50.396;8.546;2022-07-25T20:51:31;21.10;99.90
18189;DHT22;9219;50.396;8.546;2022-07-25T20:59:06;21.20;99.90